createdAt,value
2018-08-31T00:00:00.541Z,15.84
2018-08-31T00:00:04.644Z,15.83
2018-08-31T00:00:08.734Z,15.83
2018-08-31T00:00:13.036Z,15.84
2018-08-31T00:00:16.909Z,15.83
2018-08-31T00:00:20.785Z,15.83
2018-08-31T00:00:24.898Z,15.84
2018-08-31T00:00:29.091Z,15.83
2018-08-31T00:00:33.280Z,15.83
2018-08-31T00:00:37.475Z,15.84
2018-08-31T00:00:41.668Z,15.83
2018-08-31T00:00:45.861Z,15.83
2018-08-31T00:00:50.168Z,15.83
2018-08-31T00:00:54.271Z,15.84
2018-08-31T00:00:58.517Z,15.84
2018-08-31T00:01:02.825Z,15.83
2018-08-31T00:01:07.015Z,15.84
2018-08-31T00:01:11.105Z,15.84
2018-08-31T00:01:15.295Z,15.83
2018-08-31T00:01:19.385Z,15.84
2018-08-31T00:01:23.576Z,15.83
2018-08-31T00:01:27.565Z,15.84
2018-08-31T00:01:31.657Z,15.84
2018-08-31T00:01:35.855Z,15.83
2018-08-31T00:01:39.945Z,15.83
2018-08-31T00:01:44.033Z,15.82
2018-08-31T00:01:48.283Z,15.83
2018-08-31T00:01:52.484Z,15.83
2018-08-31T00:01:56.779Z,15.83
2018-08-31T00:02:00.872Z,15.83
2018-08-31T00:02:05.013Z,15.83
2018-08-31T00:02:09.205Z,15.83
2018-08-31T00:02:13.312Z,15.83
2018-08-31T00:02:17.615Z,15.83
2018-08-31T00:02:21.700Z,15.82
2018-08-31T00:02:25.785Z,15.82
2018-08-31T00:02:29.977Z,15.82
2018-08-31T00:02:34.186Z,15.82
2018-08-31T00:02:38.281Z,15.83
2018-08-31T00:02:42.481Z,15.83
2018-08-31T00:02:46.572Z,15.82
2018-08-31T00:02:50.664Z,15.82
2018-08-31T00:02:54.764Z,15.83
2018-08-31T00:02:58.872Z,15.82
2018-08-31T00:03:03.119Z,15.82
2018-08-31T00:03:07.317Z,15.82
2018-08-31T00:03:11.518Z,15.81
2018-08-31T00:03:15.718Z,15.82
2018-08-31T00:03:19.916Z,15.82
2018-08-31T00:03:23.897Z,15.82
2018-08-31T00:03:28.095Z,15.82
2018-08-31T00:03:32.082Z,15.82
2018-08-31T00:03:36.173Z,15.82
2018-08-31T00:03:40.479Z,15.81
2018-08-31T00:03:44.468Z,15.82
2018-08-31T00:03:48.461Z,15.82
2018-08-31T00:03:52.664Z,15.81
2018-08-31T00:03:56.860Z,15.81
2018-08-31T00:04:00.964Z,15.81
2018-08-31T00:04:04.940Z,15.81
2018-08-31T00:04:09.032Z,15.81
2018-08-31T00:04:13.121Z,15.82
2018-08-31T00:04:17.208Z,15.81
2018-08-31T00:04:21.196Z,15.8
2018-08-31T00:04:25.287Z,15.81
2018-08-31T00:04:29.485Z,15.81
2018-08-31T00:04:33.578Z,15.81
2018-08-31T00:04:37.785Z,15.81
2018-08-31T00:04:42.000Z,15.81
2018-08-31T00:04:46.089Z,15.8
2018-08-31T00:04:50.178Z,15.8
2018-08-31T00:04:54.483Z,15.81
2018-08-31T00:04:58.586Z,15.79
2018-08-31T00:05:02.620Z,15.8
2018-08-31T00:05:06.746Z,15.8
2018-08-31T00:05:10.732Z,15.8
2018-08-31T00:05:14.934Z,15.8
2018-08-31T00:05:19.020Z,15.8
2018-08-31T00:05:23.221Z,15.8
2018-08-31T00:05:27.425Z,15.79
2018-08-31T00:05:31.620Z,15.79
2018-08-31T00:05:35.819Z,15.79
2018-08-31T00:05:40.021Z,15.78
2018-08-31T00:05:44.325Z,15.79
2018-08-31T00:05:48.571Z,15.78
2018-08-31T00:05:52.875Z,15.79
2018-08-31T00:05:57.182Z,15.79
2018-08-31T00:06:01.478Z,15.78
2018-08-31T00:06:05.795Z,15.78
2018-08-31T00:06:09.990Z,15.78
2018-08-31T00:06:13.968Z,15.79
2018-08-31T00:06:18.317Z,15.77
2018-08-31T00:06:22.513Z,15.78
2018-08-31T00:06:26.714Z,15.78
2018-08-31T00:06:30.705Z,15.77
2018-08-31T00:06:34.920Z,15.77
2018-08-31T00:06:38.799Z,15.77
2018-08-31T00:06:42.786Z,15.77
2018-08-31T00:06:46.831Z,15.76
2018-08-31T00:06:50.921Z,15.77
2018-08-31T00:06:54.903Z,15.77
2018-08-31T00:06:59.205Z,15.76
2018-08-31T00:07:03.387Z,15.77
2018-08-31T00:07:07.579Z,15.77
2018-08-31T00:07:11.770Z,15.77
2018-08-31T00:07:16.066Z,15.76
2018-08-31T00:07:20.166Z,15.77
2018-08-31T00:07:24.254Z,15.77
2018-08-31T00:07:28.345Z,15.76
2018-08-31T00:07:32.647Z,15.76
2018-08-31T00:07:36.953Z,15.75
2018-08-31T00:07:40.945Z,15.76
2018-08-31T00:07:45.046Z,15.74
2018-08-31T00:07:49.136Z,15.74
2018-08-31T00:07:53.332Z,15.74
2018-08-31T00:07:57.425Z,15.75
2018-08-31T00:08:01.624Z,15.75
2018-08-31T00:08:05.606Z,15.74
2018-08-31T00:08:09.694Z,15.75
2018-08-31T00:08:13.906Z,15.74
2018-08-31T00:08:18.108Z,15.74
2018-08-31T00:08:22.317Z,15.75
2018-08-31T00:08:26.403Z,15.74
2018-08-31T00:08:30.602Z,15.74
2018-08-31T00:08:34.803Z,15.73
2018-08-31T00:08:39.107Z,15.73
2018-08-31T00:08:43.301Z,15.73
2018-08-31T00:08:47.498Z,15.73
2018-08-31T00:08:51.708Z,15.72
2018-08-31T00:08:55.906Z,15.72
2018-08-31T00:09:00.003Z,15.72
2018-08-31T00:09:03.987Z,15.72
2018-08-31T00:09:08.304Z,15.72
2018-08-31T00:09:12.506Z,15.72
2018-08-31T00:09:16.813Z,15.72
2018-08-31T00:09:20.807Z,15.72
2018-08-31T00:09:24.898Z,15.72
2018-08-31T00:09:29.020Z,15.72
2018-08-31T00:09:33.215Z,15.72
2018-08-31T00:09:37.515Z,15.71
2018-08-31T00:09:41.619Z,15.71
2018-08-31T00:09:45.921Z,15.71
2018-08-31T00:09:50.022Z,15.71
2018-08-31T00:09:54.223Z,15.71
2018-08-31T00:09:58.421Z,15.71
2018-08-31T00:10:02.557Z,15.71
2018-08-31T00:10:06.545Z,15.7
2018-08-31T00:10:10.742Z,15.71
2018-08-31T00:10:14.830Z,15.71
2018-08-31T00:10:19.035Z,15.7
2018-08-31T00:10:23.237Z,15.7
2018-08-31T00:10:27.234Z,15.7
2018-08-31T00:10:31.429Z,15.7
2018-08-31T00:10:35.733Z,15.7
2018-08-31T00:10:39.927Z,15.7
2018-08-31T00:10:44.230Z,15.7
2018-08-31T00:10:48.214Z,15.69
2018-08-31T00:10:52.196Z,15.7
2018-08-31T00:10:56.494Z,15.69
2018-08-31T00:11:00.587Z,15.69
2018-08-31T00:11:04.734Z,15.69
2018-08-31T00:11:08.931Z,15.69
2018-08-31T00:11:13.025Z,15.68
2018-08-31T00:11:17.216Z,15.69
2018-08-31T00:11:21.316Z,15.69
2018-08-31T00:11:25.514Z,15.68
2018-08-31T00:11:29.711Z,15.68
2018-08-31T00:11:33.945Z,15.68
2018-08-31T00:11:38.257Z,15.68
2018-08-31T00:11:42.456Z,15.68
2018-08-31T00:11:46.756Z,15.68
2018-08-31T00:11:50.748Z,15.67
2018-08-31T00:11:54.942Z,15.68
2018-08-31T00:11:59.137Z,15.67
2018-08-31T00:12:03.015Z,15.68
2018-08-31T00:12:07.226Z,15.68
2018-08-31T00:12:11.223Z,15.68
2018-08-31T00:12:15.410Z,15.68
2018-08-31T00:12:19.712Z,15.67
2018-08-31T00:12:23.803Z,15.67
2018-08-31T00:12:27.892Z,15.66
2018-08-31T00:12:32.194Z,15.66
2018-08-31T00:12:36.285Z,15.67
2018-08-31T00:12:40.585Z,15.67
2018-08-31T00:12:44.911Z,15.66
2018-08-31T00:12:49.003Z,15.65
2018-08-31T00:12:53.309Z,15.66
2018-08-31T00:12:57.606Z,15.65
2018-08-31T00:13:01.588Z,15.66
2018-08-31T00:13:05.786Z,15.65
2018-08-31T00:13:10.087Z,15.66
2018-08-31T00:13:14.294Z,15.65
2018-08-31T00:13:18.280Z,15.66
2018-08-31T00:13:22.477Z,15.66
2018-08-31T00:13:26.780Z,15.65
2018-08-31T00:13:30.977Z,15.65
2018-08-31T00:13:34.855Z,15.66
2018-08-31T00:13:39.061Z,15.65
2018-08-31T00:13:43.253Z,15.65
2018-08-31T00:13:47.236Z,15.66
2018-08-31T00:13:51.325Z,15.65
2018-08-31T00:13:55.632Z,15.64
2018-08-31T00:13:59.619Z,15.64
2018-08-31T00:14:03.827Z,15.66
2018-08-31T00:14:07.915Z,15.64
2018-08-31T00:14:12.116Z,15.64
2018-08-31T00:14:16.208Z,15.64
2018-08-31T00:14:20.299Z,15.64
2018-08-31T00:14:24.289Z,15.64
2018-08-31T00:14:28.396Z,15.64
2018-08-31T00:14:32.396Z,15.64
2018-08-31T00:14:36.381Z,15.64
2018-08-31T00:14:40.581Z,15.63
2018-08-31T00:14:44.880Z,15.64
2018-08-31T00:14:48.974Z,15.64
2018-08-31T00:14:53.169Z,15.64
2018-08-31T00:14:57.366Z,15.64
2018-08-31T00:15:01.594Z,15.63
2018-08-31T00:15:05.584Z,15.62
2018-08-31T00:15:09.892Z,15.63
2018-08-31T00:15:14.085Z,15.63
2018-08-31T00:15:18.323Z,15.63
2018-08-31T00:15:22.413Z,15.63
2018-08-31T00:15:26.708Z,15.63
2018-08-31T00:15:30.898Z,15.63
2018-08-31T00:15:35.085Z,15.62
2018-08-31T00:15:39.389Z,15.63
2018-08-31T00:15:43.589Z,15.62
2018-08-31T00:15:47.578Z,15.62
2018-08-31T00:15:51.795Z,15.62
2018-08-31T00:15:55.887Z,15.62
2018-08-31T00:16:00.089Z,15.61
2018-08-31T00:16:04.080Z,15.62
2018-08-31T00:16:08.389Z,15.61
2018-08-31T00:16:12.482Z,15.62
2018-08-31T00:16:16.465Z,15.61
2018-08-31T00:16:20.668Z,15.61
2018-08-31T00:16:24.651Z,15.61
2018-08-31T00:16:28.955Z,15.61
2018-08-31T00:16:33.160Z,15.61
2018-08-31T00:16:37.355Z,15.6
2018-08-31T00:16:41.547Z,15.61
2018-08-31T00:16:45.759Z,15.61
2018-08-31T00:16:49.647Z,15.6
2018-08-31T00:16:53.957Z,15.6
2018-08-31T00:16:58.046Z,15.6
2018-08-31T00:17:02.237Z,15.6
2018-08-31T00:17:06.431Z,15.59
2018-08-31T00:17:10.414Z,15.6
2018-08-31T00:17:14.504Z,15.59
2018-08-31T00:17:18.810Z,15.59
2018-08-31T00:17:22.924Z,15.58
2018-08-31T00:17:27.227Z,15.59
2018-08-31T00:17:31.523Z,15.59
2018-08-31T00:17:35.832Z,15.59
2018-08-31T00:17:40.035Z,15.58
2018-08-31T00:17:44.341Z,15.58
2018-08-31T00:17:48.429Z,15.59
2018-08-31T00:17:52.736Z,15.58
2018-08-31T00:17:56.935Z,15.58
2018-08-31T00:18:01.127Z,15.58
2018-08-31T00:18:05.333Z,15.58
2018-08-31T00:18:09.535Z,15.58
2018-08-31T00:18:13.524Z,15.57
2018-08-31T00:18:17.824Z,15.57
2018-08-31T00:18:22.041Z,15.57
2018-08-31T00:18:26.137Z,15.57
2018-08-31T00:18:30.444Z,15.57
2018-08-31T00:18:34.532Z,15.57
2018-08-31T00:18:38.518Z,15.56
2018-08-31T00:18:42.719Z,15.56
2018-08-31T00:18:46.916Z,15.56
2018-08-31T00:18:51.006Z,15.55
2018-08-31T00:18:54.992Z,15.56
2018-08-31T00:18:59.091Z,15.56
2018-08-31T00:19:03.299Z,15.56
2018-08-31T00:19:07.391Z,15.56
2018-08-31T00:19:11.487Z,15.56
2018-08-31T00:19:15.363Z,15.55
2018-08-31T00:19:19.561Z,15.54
2018-08-31T00:19:23.871Z,15.55
2018-08-31T00:19:28.182Z,15.55
2018-08-31T00:19:32.380Z,15.53
2018-08-31T00:19:36.574Z,15.53
2018-08-31T00:19:40.764Z,15.54
2018-08-31T00:19:44.960Z,15.54
2018-08-31T00:19:48.944Z,15.53
2018-08-31T00:19:53.252Z,15.52
2018-08-31T00:19:57.551Z,15.53
2018-08-31T00:20:01.854Z,15.53
2018-08-31T00:20:06.203Z,15.53
2018-08-31T00:20:10.522Z,15.53
2018-08-31T00:20:14.828Z,15.53
2018-08-31T00:20:19.142Z,15.53
2018-08-31T00:20:23.352Z,15.52
2018-08-31T00:20:27.711Z,15.52
2018-08-31T00:20:32.020Z,15.52
2018-08-31T00:20:36.340Z,15.52
2018-08-31T00:20:40.647Z,15.51
2018-08-31T00:20:44.757Z,15.51
2018-08-31T00:20:49.060Z,15.51
2018-08-31T00:20:53.150Z,15.51
2018-08-31T00:20:57.454Z,15.51
2018-08-31T00:21:01.863Z,15.5
2018-08-31T00:21:05.741Z,15.5
2018-08-31T00:21:10.044Z,15.51
2018-08-31T00:21:14.237Z,15.5
2018-08-31T00:21:18.430Z,15.5
2018-08-31T00:21:22.631Z,15.5
2018-08-31T00:21:26.722Z,15.49
2018-08-31T00:21:30.824Z,15.49
2018-08-31T00:21:35.018Z,15.49
2018-08-31T00:21:39.213Z,15.49
2018-08-31T00:21:43.304Z,15.49
2018-08-31T00:21:47.609Z,15.48
2018-08-31T00:21:51.612Z,15.48
2018-08-31T00:21:55.707Z,15.48
2018-08-31T00:22:32.015Z,15.47
2018-08-31T00:22:36.318Z,15.46
2018-08-31T00:22:40.523Z,15.45
2018-08-31T00:22:44.839Z,15.45
2018-08-31T00:22:48.828Z,15.46
2018-08-31T00:22:53.027Z,15.44
2018-08-31T00:22:57.339Z,15.45
2018-08-31T00:23:01.544Z,15.45
2018-08-31T00:23:05.636Z,15.45
2018-08-31T00:23:09.831Z,15.45
2018-08-31T00:23:14.143Z,15.44
2018-08-31T00:23:18.343Z,15.44
2018-08-31T00:23:22.339Z,15.44
2018-08-31T00:23:26.645Z,15.44
2018-08-31T00:23:30.949Z,15.43
2018-08-31T00:23:35.147Z,15.43
2018-08-31T00:23:39.345Z,15.43
2018-08-31T00:23:43.430Z,15.44
2018-08-31T00:23:47.625Z,15.43
2018-08-31T00:23:51.719Z,15.43
2018-08-31T00:23:56.016Z,15.43
2018-08-31T00:24:00.222Z,15.43
2018-08-31T00:24:04.316Z,15.42
2018-08-31T00:24:08.409Z,15.43
2018-08-31T00:24:12.499Z,15.42
2018-08-31T00:24:16.589Z,15.42
2018-08-31T00:24:20.790Z,15.42
2018-08-31T00:24:24.992Z,15.42
2018-08-31T00:24:29.192Z,15.42
2018-08-31T00:24:33.390Z,15.42
2018-08-31T00:24:37.688Z,15.42
2018-08-31T00:24:41.778Z,15.41
2018-08-31T00:24:46.082Z,15.41
2018-08-31T00:24:50.384Z,15.4
2018-08-31T00:24:54.475Z,15.41
2018-08-31T00:24:58.679Z,15.41
2018-08-31T00:25:02.664Z,15.41
2018-08-31T00:25:06.763Z,15.39
2018-08-31T00:25:10.851Z,15.4
2018-08-31T00:25:15.046Z,15.4
2018-08-31T00:25:19.240Z,15.39
2018-08-31T00:25:23.548Z,15.39
2018-08-31T00:25:27.640Z,15.39
2018-08-31T00:25:31.837Z,15.39
2018-08-31T00:25:35.925Z,15.38
2018-08-31T00:25:40.169Z,15.38
2018-08-31T00:25:44.363Z,15.39
2018-08-31T00:25:48.353Z,15.39
2018-08-31T00:25:52.338Z,15.38
2018-08-31T00:25:56.532Z,15.39
2018-08-31T00:26:00.736Z,15.38
2018-08-31T00:26:05.046Z,15.37
2018-08-31T00:26:09.239Z,15.38
2018-08-31T00:26:13.449Z,15.38
2018-08-31T00:26:17.669Z,15.37
2018-08-31T00:26:21.971Z,15.37
2018-08-31T00:26:26.274Z,15.37
2018-08-31T00:26:30.365Z,15.37
2018-08-31T00:26:34.567Z,15.37
2018-08-31T00:26:38.656Z,15.37
2018-08-31T00:26:42.745Z,15.36
2018-08-31T00:26:46.948Z,15.36
2018-08-31T00:26:51.263Z,15.37
2018-08-31T00:26:55.461Z,15.37
2018-08-31T00:26:59.594Z,15.36
2018-08-31T00:27:03.794Z,15.37
2018-08-31T00:27:07.779Z,15.36
2018-08-31T00:27:12.078Z,15.36
2018-08-31T00:27:16.185Z,15.36
2018-08-31T00:27:20.387Z,15.36
2018-08-31T00:27:24.584Z,15.36
2018-08-31T00:27:28.700Z,15.35
2018-08-31T00:27:32.901Z,15.36
2018-08-31T00:27:37.100Z,15.36
2018-08-31T00:27:41.310Z,15.36
2018-08-31T00:27:45.412Z,15.36
2018-08-31T00:27:49.726Z,15.35
2018-08-31T00:27:53.818Z,15.36
2018-08-31T00:27:58.026Z,15.35
2018-08-31T00:28:02.119Z,15.35
2018-08-31T00:28:06.458Z,15.35
2018-08-31T00:28:10.769Z,15.35
2018-08-31T00:28:14.859Z,15.35
2018-08-31T00:28:19.171Z,15.35
2018-08-31T00:28:23.367Z,15.35
2018-08-31T00:28:27.674Z,15.35
2018-08-31T00:28:31.778Z,15.34
2018-08-31T00:28:36.083Z,15.35
2018-08-31T00:28:40.174Z,15.35
2018-08-31T00:28:44.377Z,15.34
2018-08-31T00:28:48.466Z,15.35
2018-08-31T00:28:52.775Z,15.35
2018-08-31T00:28:57.075Z,15.34
2018-08-31T00:29:01.162Z,15.34
2018-08-31T00:29:05.365Z,15.34
2018-08-31T00:29:09.564Z,15.35
2018-08-31T00:29:13.652Z,15.34
2018-08-31T00:29:17.744Z,15.34
2018-08-31T00:29:21.837Z,15.33
2018-08-31T00:29:25.716Z,15.34
2018-08-31T00:29:29.909Z,15.34
2018-08-31T00:29:33.997Z,15.33
2018-08-31T00:29:38.192Z,15.34
2018-08-31T00:29:42.384Z,15.33
2018-08-31T00:29:46.693Z,15.33
2018-08-31T00:29:50.934Z,15.34
2018-08-31T00:29:55.136Z,15.33
2018-08-31T00:29:59.493Z,15.33
2018-08-31T00:30:03.585Z,15.34
2018-08-31T00:30:07.675Z,15.33
2018-08-31T00:30:11.779Z,15.33
2018-08-31T00:30:15.978Z,15.34
2018-08-31T00:30:20.070Z,15.33
2018-08-31T00:30:24.269Z,15.34
2018-08-31T00:30:28.465Z,15.35
2018-08-31T00:30:32.454Z,15.34
2018-08-31T00:30:36.646Z,15.35
2018-08-31T00:30:40.741Z,15.34
2018-08-31T00:30:45.039Z,15.33
2018-08-31T00:30:49.020Z,15.34
2018-08-31T00:30:53.214Z,15.33
2018-08-31T00:30:57.402Z,15.33
2018-08-31T00:31:01.705Z,15.35
2018-08-31T00:31:06.044Z,15.34
2018-08-31T00:31:10.347Z,15.34
2018-08-31T00:31:14.537Z,15.32
2018-08-31T00:31:18.839Z,15.33
2018-08-31T00:31:23.035Z,15.33
2018-08-31T00:31:27.127Z,15.34
2018-08-31T00:31:31.318Z,15.33
2018-08-31T00:31:35.516Z,15.33
2018-08-31T00:31:39.740Z,15.33
2018-08-31T00:31:43.939Z,15.33
2018-08-31T00:31:48.029Z,15.34
2018-08-31T00:31:52.012Z,15.34
2018-08-31T00:31:56.328Z,15.34
2018-08-31T00:32:00.423Z,15.33
2018-08-31T00:32:04.661Z,15.34
2018-08-31T00:32:08.865Z,15.33
2018-08-31T00:32:13.066Z,15.33
2018-08-31T00:32:16.945Z,15.33
2018-08-31T00:32:21.308Z,15.33
2018-08-31T00:32:25.502Z,15.34
2018-08-31T00:32:29.711Z,15.33
2018-08-31T00:32:33.905Z,15.34
2018-08-31T00:32:38.001Z,15.34
2018-08-31T00:32:42.197Z,15.34
2018-08-31T00:32:46.286Z,15.34
2018-08-31T00:32:50.593Z,15.34
2018-08-31T00:32:54.576Z,15.34
2018-08-31T00:32:58.679Z,15.34
2018-08-31T00:33:02.879Z,15.33
2018-08-31T00:33:06.877Z,15.34
2018-08-31T00:33:11.192Z,15.34
2018-08-31T00:33:15.391Z,15.34
2018-08-31T00:33:19.591Z,15.35
2018-08-31T00:33:23.580Z,15.35
2018-08-31T00:33:27.779Z,15.35
2018-08-31T00:33:31.983Z,15.35
2018-08-31T00:33:36.177Z,15.35
2018-08-31T00:33:40.373Z,15.35
2018-08-31T00:33:44.574Z,15.35
2018-08-31T00:33:48.562Z,15.35
2018-08-31T00:33:52.881Z,15.36
2018-08-31T00:33:57.189Z,15.36
2018-08-31T00:34:01.379Z,15.35
2018-08-31T00:34:05.466Z,15.36
2018-08-31T00:34:09.679Z,15.35
2018-08-31T00:34:13.983Z,15.35
2018-08-31T00:34:18.087Z,15.36
2018-08-31T00:34:22.181Z,15.36
2018-08-31T00:34:26.381Z,15.36
2018-08-31T00:34:30.585Z,15.36
2018-08-31T00:34:34.886Z,15.36
2018-08-31T00:34:39.187Z,15.36
2018-08-31T00:34:43.388Z,15.36
2018-08-31T00:34:47.382Z,15.36
2018-08-31T00:34:51.579Z,15.37
2018-08-31T00:34:55.562Z,15.36
2018-08-31T00:34:59.663Z,15.37
2018-08-31T00:35:03.755Z,15.37
2018-08-31T00:35:07.862Z,15.37
2018-08-31T00:35:12.169Z,15.37
2018-08-31T00:35:16.259Z,15.37
2018-08-31T00:35:20.254Z,15.38
2018-08-31T00:35:24.449Z,15.37
2018-08-31T00:35:28.751Z,15.38
2018-08-31T00:35:33.065Z,15.37
2018-08-31T00:35:37.368Z,15.38
2018-08-31T00:35:41.679Z,15.37
2018-08-31T00:35:45.872Z,15.38
2018-08-31T00:35:50.179Z,15.38
2018-08-31T00:35:54.378Z,15.38
2018-08-31T00:35:58.461Z,15.38
2018-08-31T00:36:02.550Z,15.39
2018-08-31T00:36:06.750Z,15.4
2018-08-31T00:36:10.940Z,15.39
2018-08-31T00:36:15.140Z,15.39
2018-08-31T00:36:19.133Z,15.38
2018-08-31T00:36:23.445Z,15.39
2018-08-31T00:36:27.437Z,15.39
2018-08-31T00:36:31.735Z,15.39
2018-08-31T00:36:35.930Z,15.39
2018-08-31T00:36:40.230Z,15.39
2018-08-31T00:36:44.536Z,15.4
2018-08-31T00:36:48.306Z,15.39
2018-08-31T00:36:52.505Z,15.4
2018-08-31T00:36:56.811Z,15.4
2018-08-31T00:37:01.008Z,15.41
2018-08-31T00:37:04.887Z,15.4
2018-08-31T00:37:09.189Z,15.41
2018-08-31T00:37:13.282Z,15.41
2018-08-31T00:37:17.485Z,15.41
2018-08-31T00:37:21.475Z,15.41
2018-08-31T00:37:25.786Z,15.41
2018-08-31T00:37:30.099Z,15.41
2018-08-31T00:37:34.196Z,15.41
2018-08-31T00:37:38.513Z,15.41
2018-08-31T00:37:42.708Z,15.42
2018-08-31T00:37:46.900Z,15.41
2018-08-31T00:37:50.990Z,15.42
2018-08-31T00:37:55.295Z,15.42
2018-08-31T00:37:59.274Z,15.41
2018-08-31T00:38:03.363Z,15.41
2018-08-31T00:38:07.456Z,15.41
2018-08-31T00:38:11.564Z,15.41
2018-08-31T00:38:15.868Z,15.42
2018-08-31T00:38:20.173Z,15.42
2018-08-31T00:38:24.480Z,15.42
2018-08-31T00:38:28.785Z,15.42
2018-08-31T00:38:32.987Z,15.42
2018-08-31T00:38:37.190Z,15.43
2018-08-31T00:38:41.280Z,15.42
2018-08-31T00:38:45.371Z,15.42
2018-08-31T00:38:49.576Z,15.43
2018-08-31T00:38:53.668Z,15.42
2018-08-31T00:38:57.867Z,15.43
2018-08-31T00:39:02.092Z,15.42
2018-08-31T00:39:06.180Z,15.42
2018-08-31T00:39:10.484Z,15.43
2018-08-31T00:39:14.791Z,15.42
2018-08-31T00:39:18.987Z,15.42
2018-08-31T00:39:23.298Z,15.42
2018-08-31T00:39:27.528Z,15.42
2018-08-31T00:39:31.619Z,15.42
2018-08-31T00:39:35.923Z,15.42
2018-08-31T00:39:40.123Z,15.42
2018-08-31T00:39:44.316Z,15.42
2018-08-31T00:39:48.521Z,15.42
2018-08-31T00:39:52.830Z,15.42
2018-08-31T00:39:56.918Z,15.42
2018-08-31T00:40:01.123Z,15.42
2018-08-31T00:40:05.210Z,15.42
2018-08-31T00:40:09.409Z,15.41
2018-08-31T00:40:13.503Z,15.43
2018-08-31T00:40:17.710Z,15.42
2018-08-31T00:40:21.914Z,15.42
2018-08-31T00:40:26.116Z,15.42
2018-08-31T00:40:30.204Z,15.42
2018-08-31T00:40:34.399Z,15.42
2018-08-31T00:40:38.700Z,15.42
2018-08-31T00:40:43.003Z,15.42
2018-08-31T00:40:47.197Z,15.42
2018-08-31T00:40:51.288Z,15.41
2018-08-31T00:40:55.523Z,15.42
2018-08-31T00:40:59.832Z,15.42
2018-08-31T00:41:03.824Z,15.42
2018-08-31T00:41:08.140Z,15.42
2018-08-31T00:41:12.339Z,15.42
2018-08-31T00:41:16.534Z,15.42
2018-08-31T00:41:20.889Z,15.41
2018-08-31T00:41:25.091Z,15.42
2018-08-31T00:41:29.401Z,15.42
2018-08-31T00:41:33.721Z,15.42
2018-08-31T00:41:37.912Z,15.42
2018-08-31T00:41:41.998Z,15.42
2018-08-31T00:41:46.088Z,15.42
2018-08-31T00:41:50.180Z,15.42
2018-08-31T00:41:54.387Z,15.42
2018-08-31T00:41:58.582Z,15.42
2018-08-31T00:42:02.679Z,15.42
2018-08-31T00:42:06.788Z,15.42
2018-08-31T00:42:10.989Z,15.41
2018-08-31T00:42:15.299Z,15.41
2018-08-31T00:42:19.397Z,15.4
2018-08-31T00:42:23.596Z,15.41
2018-08-31T00:42:27.902Z,15.41
2018-08-31T00:42:31.895Z,15.41
2018-08-31T00:42:36.096Z,15.41
2018-08-31T00:42:40.290Z,15.42
2018-08-31T00:42:44.329Z,15.41
2018-08-31T00:42:48.539Z,15.41
2018-08-31T00:42:52.840Z,15.41
2018-08-31T00:42:57.045Z,15.4
2018-08-31T00:43:01.237Z,15.41
2018-08-31T00:43:05.344Z,15.41
2018-08-31T00:43:09.546Z,15.41
2018-08-31T00:43:13.643Z,15.41
2018-08-31T00:43:17.841Z,15.41
2018-08-31T00:43:22.038Z,15.41
2018-08-31T00:43:26.340Z,15.41
2018-08-31T00:43:30.539Z,15.41
2018-08-31T00:43:34.526Z,15.4
2018-08-31T00:43:38.831Z,15.41
2018-08-31T00:43:43.043Z,15.41
2018-08-31T00:43:47.242Z,15.4
2018-08-31T00:43:51.336Z,15.41
2018-08-31T00:43:55.640Z,15.4
2018-08-31T00:43:59.739Z,15.41
2018-08-31T00:44:03.834Z,15.4
2018-08-31T00:44:08.131Z,15.41
2018-08-31T00:44:12.116Z,15.4
2018-08-31T00:44:16.422Z,15.41
2018-08-31T00:44:20.513Z,15.39
2018-08-31T00:44:24.879Z,15.4
2018-08-31T00:44:28.970Z,15.4
2018-08-31T00:44:33.063Z,15.39
2018-08-31T00:44:37.049Z,15.4
2018-08-31T00:44:41.250Z,15.39
2018-08-31T00:44:45.456Z,15.39
2018-08-31T00:44:49.762Z,15.39
2018-08-31T00:44:54.066Z,15.39
2018-08-31T00:44:58.377Z,15.4
2018-08-31T00:45:02.578Z,15.4
2018-08-31T00:45:06.662Z,15.4
2018-08-31T00:45:10.750Z,15.39
2018-08-31T00:45:14.944Z,15.38
2018-08-31T00:45:19.040Z,15.38
2018-08-31T00:45:23.242Z,15.39
2018-08-31T00:45:27.444Z,15.39
2018-08-31T00:45:31.636Z,15.39
2018-08-31T00:45:35.833Z,15.38
2018-08-31T00:45:40.166Z,15.38
2018-08-31T00:45:44.471Z,15.39
2018-08-31T00:45:48.771Z,15.39
2018-08-31T00:45:52.865Z,15.38
2018-08-31T00:45:57.177Z,15.4
2018-08-31T00:46:01.485Z,15.38
2018-08-31T00:46:05.587Z,15.39
2018-08-31T00:46:09.676Z,15.37
2018-08-31T00:46:13.980Z,15.38
2018-08-31T00:46:18.183Z,15.39
2018-08-31T00:46:22.497Z,15.38
2018-08-31T00:46:26.804Z,15.38
2018-08-31T00:46:30.996Z,15.38
2018-08-31T00:46:35.088Z,15.38
2018-08-31T00:46:39.399Z,15.39
2018-08-31T00:46:43.381Z,15.38
2018-08-31T00:46:47.589Z,15.38
2018-08-31T00:46:51.684Z,15.39
2018-08-31T00:46:55.896Z,15.38
2018-08-31T00:47:00.203Z,15.39
2018-08-31T00:47:04.294Z,15.38
2018-08-31T00:47:08.493Z,15.39
2018-08-31T00:47:12.696Z,15.38
2018-08-31T00:47:16.791Z,15.38
2018-08-31T00:47:20.995Z,15.38
2018-08-31T00:47:25.294Z,15.38
2018-08-31T00:47:29.386Z,15.38
2018-08-31T00:47:33.484Z,15.38
2018-08-31T00:47:37.686Z,15.38
2018-08-31T00:47:41.989Z,15.38
2018-08-31T00:47:46.191Z,15.38
2018-08-31T00:47:50.386Z,15.38
2018-08-31T00:47:54.581Z,15.39
2018-08-31T00:47:58.776Z,15.38
2018-08-31T00:48:02.875Z,15.38
2018-08-31T00:48:07.185Z,15.38
2018-08-31T00:48:11.497Z,15.38
2018-08-31T00:48:15.714Z,15.38
2018-08-31T00:48:20.013Z,15.38
2018-08-31T00:48:24.254Z,15.37
2018-08-31T00:48:28.457Z,15.37
2018-08-31T00:48:32.653Z,15.38
2018-08-31T00:48:37.004Z,15.38
2018-08-31T00:48:41.104Z,15.38
2018-08-31T00:48:45.413Z,15.38
2018-08-31T00:48:49.618Z,15.37
2018-08-31T00:48:53.706Z,15.38
2018-08-31T00:48:57.941Z,15.38
2018-08-31T00:49:02.034Z,15.38
2018-08-31T00:49:06.236Z,15.38
2018-08-31T00:49:10.435Z,15.38
2018-08-31T00:49:14.644Z,15.37
2018-08-31T00:49:18.733Z,15.37
2018-08-31T00:49:22.927Z,15.37
2018-08-31T00:49:27.142Z,15.38
2018-08-31T00:49:31.343Z,15.38
2018-08-31T00:49:35.555Z,15.37
2018-08-31T00:49:39.755Z,15.36
2018-08-31T00:49:43.848Z,15.37
2018-08-31T00:49:48.045Z,15.38
2018-08-31T00:49:52.136Z,15.37
2018-08-31T00:49:56.329Z,15.37
2018-08-31T00:50:00.653Z,15.36
2018-08-31T00:50:04.854Z,15.37
2018-08-31T00:50:08.944Z,15.37
2018-08-31T00:50:13.245Z,15.37
2018-08-31T00:50:17.227Z,15.37
2018-08-31T00:50:21.311Z,15.37
2018-08-31T00:50:25.506Z,15.36
2018-08-31T00:50:29.594Z,15.37
2018-08-31T00:50:33.900Z,15.36
2018-08-31T00:50:38.094Z,15.36
2018-08-31T00:50:42.193Z,15.37
2018-08-31T00:50:46.397Z,15.36
2018-08-31T00:50:50.592Z,15.36
2018-08-31T00:50:54.790Z,15.37
2018-08-31T00:50:58.987Z,15.35
2018-08-31T00:51:03.084Z,15.36
2018-08-31T00:51:07.392Z,15.36
2018-08-31T00:51:11.497Z,15.35
2018-08-31T00:51:15.798Z,15.36
2018-08-31T00:51:19.991Z,15.36
2018-08-31T00:51:24.078Z,15.35
2018-08-31T00:51:28.272Z,15.36
2018-08-31T00:51:32.588Z,15.36
2018-08-31T00:51:36.886Z,15.36
2018-08-31T00:51:41.080Z,15.35
2018-08-31T00:51:45.275Z,15.35
2018-08-31T00:51:49.484Z,15.35
2018-08-31T00:51:53.677Z,15.35
2018-08-31T00:51:57.662Z,15.35
2018-08-31T00:52:01.862Z,15.36
2018-08-31T00:52:05.844Z,15.35
2018-08-31T00:52:10.146Z,15.35
2018-08-31T00:52:14.343Z,15.35
2018-08-31T00:52:18.652Z,15.35
2018-08-31T00:52:22.963Z,15.35
2018-08-31T00:52:27.301Z,15.34
2018-08-31T00:52:31.494Z,15.34
2018-08-31T00:52:35.834Z,15.35
2018-08-31T00:52:40.143Z,15.35
2018-08-31T00:52:44.346Z,15.35
2018-08-31T00:52:48.661Z,15.34
2018-08-31T00:52:52.749Z,15.35
2018-08-31T00:52:56.846Z,15.34
2018-08-31T00:53:01.196Z,15.34
2018-08-31T00:53:05.387Z,15.33
2018-08-31T00:53:09.692Z,15.34
2018-08-31T00:53:14.000Z,15.33
2018-08-31T00:53:18.247Z,15.34
2018-08-31T00:53:22.345Z,15.33
2018-08-31T00:53:26.606Z,15.34
2018-08-31T00:53:30.699Z,15.34
2018-08-31T00:53:35.009Z,15.34
2018-08-31T00:53:39.307Z,15.34
2018-08-31T00:53:43.506Z,15.33
2018-08-31T00:53:47.703Z,15.34
2018-08-31T00:53:52.003Z,15.33
2018-08-31T00:53:56.314Z,15.33
2018-08-31T00:54:00.510Z,15.32
2018-08-31T00:54:04.695Z,15.33
2018-08-31T00:54:08.681Z,15.33
2018-08-31T00:54:12.979Z,15.33
2018-08-31T00:54:17.074Z,15.33
2018-08-31T00:54:21.275Z,15.33
2018-08-31T00:54:25.366Z,15.32